createdAt,value
2022-11-24T00:04:04.215Z,7.66
2022-11-24T00:09:06.725Z,7.72
2022-11-24T00:14:08.316Z,7.80
2022-11-24T00:19:10.447Z,7.87
2022-11-24T00:24:12.243Z,7.93
2022-11-24T00:29:13.830Z,7.95
2022-11-24T00:34:17.730Z,7.98
2022-11-24T00:39:21.537Z,7.98
2022-11-24T00:44:23.118Z,8.02
2022-11-24T00:49:24.647Z,8.05
2022-11-24T00:54:26.200Z,8.11
2022-11-24T00:59:27.771Z,8.17
2022-11-24T01:04:29.340Z,8.22
2022-11-24T01:09:30.888Z,8.22
2022-11-24T01:14:43.393Z,8.23
2022-11-24T01:19:47.180Z,8.28
2022-11-24T01:24:48.765Z,8.30
2022-11-24T01:29:50.307Z,8.35
2022-11-24T01:34:55.183Z,8.44
2022-11-24T01:39:56.803Z,8.47
2022-11-24T01:45:34.839Z,8.50
2022-11-24T01:50:36.864Z,8.48
2022-11-24T01:55:39.679Z,8.48
2022-11-24T02:00:44.157Z,8.49
2022-11-24T02:06:13.499Z,8.51
2022-11-24T02:11:15.323Z,8.51
2022-11-24T02:16:17.375Z,8.50
2022-11-24T02:21:19.092Z,8.46
2022-11-24T02:26:35.572Z,8.34
2022-11-24T02:31:38.289Z,8.18
2022-11-24T02:36:39.883Z,7.96
2022-11-24T02:41:56.847Z,7.71
2022-11-24T02:47:06.670Z,7.45
2022-11-24T02:52:08.909Z,7.47
2022-11-24T02:57:11.491Z,7.42
2022-11-24T03:02:13.079Z,7.29
2022-11-24T03:07:14.953Z,7.29
2022-11-24T03:12:16.576Z,7.44
2022-11-24T03:17:18.144Z,7.58
2022-11-24T03:22:19.723Z,7.69
2022-11-24T03:27:21.355Z,7.78
2022-11-24T03:32:23.027Z,7.84
2022-11-24T03:37:24.648Z,7.83
2022-11-24T03:42:26.187Z,7.81
2022-11-24T03:47:27.730Z,7.71
2022-11-24T03:52:29.317Z,7.81
2022-11-24T03:57:30.905Z,7.94
2022-11-24T04:02:32.570Z,8.00
2022-11-24T04:07:34.187Z,8.08
2022-11-24T04:12:44.849Z,8.07
2022-11-24T04:17:47.925Z,8.12
2022-11-24T04:22:50.744Z,8.17
2022-11-24T04:27:54.501Z,8.03
2022-11-24T04:32:57.164Z,7.44
2022-11-24T04:38:02.580Z,7.11
2022-11-24T04:43:04.219Z,7.01
2022-11-24T04:48:06.420Z,6.95
2022-11-24T04:53:09.020Z,6.93
2022-11-24T04:58:11.288Z,6.85
2022-11-24T05:03:12.911Z,6.92
2022-11-24T05:08:14.468Z,7.10
2022-11-24T05:13:16.000Z,7.41
2022-11-24T05:18:17.609Z,7.59
2022-11-24T05:23:19.188Z,7.66
2022-11-24T05:28:20.727Z,7.80
2022-11-24T05:33:23.093Z,7.83
2022-11-24T05:38:24.787Z,7.79
2022-11-24T05:43:26.404Z,7.89
2022-11-24T05:48:28.156Z,7.97
2022-11-24T05:53:29.702Z,7.98
2022-11-24T05:58:31.314Z,8.05
2022-11-24T06:03:32.863Z,8.09
2022-11-24T06:08:34.416Z,8.06
2022-11-24T06:13:41.426Z,7.80
2022-11-24T06:18:45.591Z,7.63
2022-11-24T06:23:50.167Z,7.54
2022-11-24T06:28:51.767Z,7.50
2022-11-24T06:33:53.743Z,7.42
2022-11-24T06:38:55.354Z,7.28
2022-11-24T06:43:56.975Z,7.17
2022-11-24T06:48:59.842Z,7.09
2022-11-24T06:54:01.814Z,6.98
2022-11-24T06:59:03.415Z,6.90
2022-11-24T07:04:04.958Z,6.88
2022-11-24T07:09:06.891Z,6.81
2022-11-24T07:14:08.998Z,6.74
2022-11-24T07:19:12.990Z,6.67
2022-11-24T07:24:17.120Z,6.57
2022-11-24T07:29:19.059Z,6.46
2022-11-24T07:34:20.606Z,6.44
2022-11-24T07:39:22.158Z,6.44
2022-11-24T07:44:25.138Z,6.43
2022-11-24T07:49:26.821Z,6.41
2022-11-24T07:54:28.457Z,6.48
2022-11-24T07:59:29.999Z,6.48
2022-11-24T08:04:31.651Z,6.43
2022-11-24T08:09:33.316Z,6.43
2022-11-24T08:14:35.030Z,6.55
2022-11-24T08:19:39.352Z,6.80
2022-11-24T08:24:46.388Z,7.08
2022-11-24T08:29:47.955Z,7.32
2022-11-24T08:34:49.510Z,7.58
2022-11-24T08:39:52.420Z,7.88
2022-11-24T08:44:58.830Z,8.13
2022-11-24T08:50:00.972Z,8.21
2022-11-24T08:55:02.582Z,8.34
2022-11-24T09:00:05.415Z,8.44
2022-11-24T09:05:22.455Z,8.45
2022-11-24T09:10:28.884Z,8.45
2022-11-24T09:15:30.623Z,8.38
2022-11-24T09:20:32.212Z,8.34
2022-11-24T09:25:33.791Z,8.35
2022-11-24T09:30:35.404Z,8.42
2022-11-24T09:35:37.765Z,8.48
2022-11-24T09:40:39.394Z,8.61
2022-11-24T09:46:06.374Z,8.63
2022-11-24T09:51:12.147Z,8.73
2022-11-24T09:56:32.263Z,8.80
2022-11-24T10:01:37.132Z,8.91
2022-11-24T10:07:06.920Z,9.30
2022-11-24T10:12:27.571Z,9.50
2022-11-24T10:17:47.155Z,9.51
2022-11-24T10:23:03.926Z,9.38
2022-11-24T10:28:12.447Z,9.19
2022-11-24T10:33:28.777Z,9.23
2022-11-24T10:38:38.902Z,9.27
2022-11-24T10:43:42.182Z,9.12
2022-11-24T10:48:49.349Z,9.02
2022-11-24T10:53:59.717Z,9.25
2022-11-24T10:59:30.838Z,9.65
2022-11-24T11:04:35.376Z,10.04
2022-11-24T11:09:37.296Z,10.32
2022-11-24T11:14:38.986Z,10.47
2022-11-24T11:19:49.815Z,10.49
2022-11-24T11:25:03.819Z,10.43
2022-11-24T11:35:45.059Z,10.55
2022-11-24T11:40:50.491Z,10.68
2022-11-24T11:46:12.090Z,10.73
2022-11-24T11:51:26.741Z,10.66
2022-11-24T11:56:32.995Z,10.57
2022-11-24T12:01:50.581Z,10.71
2022-11-24T12:07:10.983Z,11.03
2022-11-24T12:12:43.501Z,11.15
2022-11-24T12:17:55.609Z,11.14
2022-11-24T12:23:26.809Z,11.04
2022-11-24T12:29:10.266Z,11.09
2022-11-24T12:34:33.516Z,10.88
2022-11-24T12:39:57.552Z,10.68
2022-11-24T12:45:08.277Z,10.79
2022-11-24T12:50:19.855Z,11.14
2022-11-24T12:55:23.587Z,11.11
2022-11-24T13:00:37.962Z,11.23
2022-11-24T13:06:17.978Z,11.21
2022-11-24T13:11:22.191Z,10.84
2022-11-24T13:16:53.560Z,10.84
2022-11-24T13:22:04.522Z,11.07
2022-11-24T13:27:19.723Z,11.26
2022-11-24T13:32:21.413Z,11.24
2022-11-24T13:37:31.327Z,10.97
2022-11-24T13:42:56.372Z,10.84
2022-11-24T13:48:00.140Z,10.96
2022-11-24T13:53:15.616Z,10.95
2022-11-24T13:58:31.884Z,10.90
2022-11-24T14:04:28.113Z,10.93
2022-11-24T14:09:33.898Z,10.97
2022-11-24T14:14:35.617Z,10.67
2022-11-24T14:19:37.371Z,10.32
2022-11-24T14:24:41.609Z,10.05
2022-11-24T14:29:59.031Z,9.78
2022-11-24T14:35:00.977Z,9.57
2022-11-24T14:40:02.601Z,9.37
2022-11-24T14:45:04.556Z,9.18
2022-11-24T14:50:12.305Z,9.02
2022-11-24T14:55:48.915Z,8.89
2022-11-24T15:01:09.339Z,8.76
2022-11-24T15:06:19.893Z,8.60
2022-11-24T15:11:25.702Z,8.39
2022-11-24T15:16:29.120Z,8.20
2022-11-24T15:21:35.785Z,7.98
2022-11-24T15:26:41.985Z,7.81
2022-11-24T15:31:47.848Z,7.56
2022-11-24T15:36:54.008Z,7.30
2022-11-24T15:41:55.618Z,7.13
2022-11-24T15:46:57.312Z,6.93
2022-11-24T15:51:59.058Z,6.71
2022-11-24T15:57:00.642Z,6.57
2022-11-24T16:02:02.260Z,6.41
2022-11-24T16:07:06.257Z,6.25
2022-11-24T16:12:11.260Z,6.14
2022-11-24T16:17:12.849Z,6.02
2022-11-24T16:22:14.417Z,5.84
2022-11-24T16:27:15.968Z,5.56
2022-11-24T16:32:17.615Z,5.38
2022-11-24T16:37:21.011Z,5.22
2022-11-24T16:42:22.649Z,5.05
2022-11-24T16:47:24.342Z,4.86
2022-11-24T16:52:25.955Z,4.66
2022-11-24T16:57:27.754Z,4.46
2022-11-24T17:02:29.390Z,4.29
2022-11-24T17:07:31.351Z,4.15
2022-11-24T17:12:35.776Z,3.98
2022-11-24T17:17:37.637Z,3.91
2022-11-24T17:22:39.418Z,3.80
2022-11-24T17:27:41.108Z,3.70
2022-11-24T17:32:42.795Z,3.65
2022-11-24T17:37:44.340Z,3.63
2022-11-24T17:42:45.900Z,3.63
2022-11-24T17:47:47.455Z,3.63
2022-11-24T17:52:49.040Z,3.64
2022-11-24T17:57:50.668Z,3.56
2022-11-24T18:02:52.325Z,3.50
2022-11-24T18:07:55.129Z,3.43
2022-11-24T18:12:57.143Z,3.35
2022-11-24T18:17:58.719Z,3.32
2022-11-24T18:23:05.906Z,3.28
2022-11-24T18:28:08.368Z,3.11
2022-11-24T18:33:09.919Z,3.03
2022-11-24T18:38:11.463Z,2.95
2022-11-24T18:43:13.018Z,2.89
2022-11-24T18:48:15.093Z,2.90
2022-11-24T18:53:16.695Z,2.82
2022-11-24T18:58:18.291Z,2.73
2022-11-24T19:03:19.924Z,2.64
2022-11-24T19:08:21.488Z,2.57
2022-11-24T19:13:25.713Z,2.55
2022-11-24T19:18:29.380Z,2.51
2022-11-24T19:23:31.034Z,2.49
2022-11-24T19:28:33.333Z,2.50
2022-11-24T19:33:35.656Z,2.52
2022-11-24T19:38:37.484Z,2.61
2022-11-24T19:43:40.008Z,2.56
2022-11-24T19:48:43.788Z,2.43
2022-11-24T19:53:45.782Z,2.29
2022-11-24T19:58:48.598Z,2.15
2022-11-24T20:03:55.121Z,2.10
2022-11-24T20:09:01.011Z,2.01
2022-11-24T20:14:03.308Z,1.95
2022-11-24T20:19:07.972Z,1.97
2022-11-24T20:24:15.874Z,2.01
2022-11-24T20:29:18.426Z,2.02
2022-11-24T20:34:21.506Z,1.92
2022-11-24T20:39:27.940Z,1.86
2022-11-24T20:44:30.251Z,1.76
2022-11-24T20:49:31.867Z,1.82
2022-11-24T20:54:33.796Z,1.75
2022-11-24T20:59:35.516Z,1.66
2022-11-24T21:04:37.428Z,1.57
2022-11-24T21:09:39.625Z,1.43
2022-11-24T21:14:41.618Z,1.36
2022-11-24T21:19:43.231Z,1.28
2022-11-24T21:24:44.804Z,1.17
2022-11-24T21:29:46.360Z,1.06
2022-11-24T21:34:47.927Z,0.95
2022-11-24T21:39:49.499Z,0.89
2022-11-24T21:44:51.056Z,0.79
2022-11-24T21:49:52.783Z,0.61
2022-11-24T21:54:54.351Z,0.67
2022-11-24T21:59:55.939Z,0.73
2022-11-24T22:04:57.654Z,0.68
2022-11-24T22:09:59.341Z,0.59
2022-11-24T22:15:00.949Z,0.53
2022-11-24T22:20:02.694Z,0.42
2022-11-24T22:25:04.699Z,0.27
2022-11-24T22:30:06.992Z,0.24
2022-11-24T22:35:08.957Z,0.16
2022-11-24T22:40:10.836Z,0.30
2022-11-24T22:45:12.434Z,0.28
2022-11-24T22:50:14.347Z,0.24
2022-11-24T22:55:18.312Z,0.10
2022-11-24T23:00:20.163Z,0.03
2022-11-24T23:05:21.871Z,-0.07
2022-11-24T23:10:23.510Z,-0.09
2022-11-24T23:15:25.095Z,-0.08
2022-11-24T23:20:26.676Z,-0.08
2022-11-24T23:25:28.352Z,-0.09
2022-11-24T23:30:29.904Z,-0.03
2022-11-24T23:35:31.488Z,0.01
2022-11-24T23:40:33.210Z,-0.07
2022-11-24T23:45:34.793Z,-0.07
2022-11-24T23:50:36.406Z,-0.12
2022-11-24T23:55:38.119Z,-0.12
